createdAt,value
2022-08-03T00:01:27.728Z,12.45
2022-08-03T00:03:55.359Z,12.07
2022-08-03T00:06:22.326Z,12.15
2022-08-03T00:08:49.301Z,11.95
2022-08-03T00:11:16.301Z,11.40
2022-08-03T00:13:43.567Z,11.57
2022-08-03T00:16:13.353Z,11.50
2022-08-03T00:18:40.433Z,12.32
2022-08-03T00:21:07.756Z,11.45
2022-08-03T00:23:51.176Z,11.88
2022-08-03T00:26:21.036Z,11.63
2022-08-03T00:28:48.669Z,12.27
2022-08-03T00:31:15.674Z,12.63
2022-08-03T00:33:57.912Z,12.88
2022-08-03T00:36:27.394Z,11.95
2022-08-03T00:38:54.931Z,12.10
2022-08-03T00:41:21.931Z,12.38
2022-08-03T00:43:48.961Z,12.13
2022-08-03T00:46:20.827Z,11.90
2022-08-03T00:48:53.181Z,11.60
2022-08-03T00:51:22.392Z,12.05
2022-08-03T00:53:50.385Z,12.30
2022-08-03T00:56:18.535Z,12.57
2022-08-03T00:58:47.062Z,12.45
2022-08-03T01:01:16.532Z,13.05
2022-08-03T01:03:44.764Z,12.60
2022-08-03T01:06:22.318Z,12.43
2022-08-03T01:09:09.812Z,12.52
2022-08-03T01:12:38.936Z,12.75
2022-08-03T01:15:13.543Z,12.65
2022-08-03T01:18:03.843Z,13.38
2022-08-03T01:20:35.718Z,13.15
2022-08-03T01:23:36.380Z,13.10
2022-08-03T01:26:39.030Z,13.02
2022-08-03T01:29:31.522Z,12.70
2022-08-03T01:33:02.518Z,13.68
2022-08-03T01:35:00.905Z,14.82
2022-08-03T01:37:38.916Z,14.30
2022-08-03T01:40:08.135Z,14.00
2022-08-03T01:42:38.753Z,13.90
2022-08-03T01:45:07.913Z,14.55
2022-08-03T01:47:35.742Z,14.18
2022-08-03T01:50:05.567Z,15.57
2022-08-03T01:52:33.859Z,17.48
2022-08-03T01:55:03.338Z,16.10
2022-08-03T01:57:31.295Z,18.38
2022-08-03T02:00:00.932Z,26.20
2022-08-03T02:02:34.069Z,24.10
2022-08-03T02:05:04.326Z,17.45
2022-08-03T02:07:33.314Z,16.15
2022-08-03T02:10:03.368Z,14.90
2022-08-03T02:12:33.015Z,14.40
2022-08-03T02:15:01.151Z,12.52
2022-08-03T02:17:39.124Z,12.50
2022-08-03T02:20:09.503Z,12.70
2022-08-03T02:22:39.696Z,12.10
2022-08-03T02:25:12.540Z,12.15
2022-08-03T02:27:53.261Z,11.65
2022-08-03T02:30:21.418Z,12.57
2022-08-03T02:32:58.011Z,12.13
2022-08-03T02:35:28.445Z,12.25
2022-08-03T02:38:02.477Z,12.35
2022-08-03T02:40:31.848Z,11.93
2022-08-03T02:43:04.202Z,11.80
2022-08-03T02:45:36.116Z,12.38
2022-08-03T02:48:05.715Z,11.80
2022-08-03T02:50:35.230Z,12.40
2022-08-03T02:53:03.873Z,12.25
2022-08-03T02:55:33.558Z,11.85
2022-08-03T02:58:01.608Z,12.57
2022-08-03T03:00:31.274Z,12.38
2022-08-03T03:03:01.035Z,12.68
2022-08-03T03:05:53.294Z,12.32
2022-08-03T03:08:20.887Z,11.60
2022-08-03T03:11:00.918Z,11.93
2022-08-03T03:13:30.725Z,11.80
2022-08-03T03:16:04.799Z,11.55
2022-08-03T03:18:33.993Z,11.40
2022-08-03T03:21:03.990Z,11.52
2022-08-03T03:23:32.190Z,11.90
2022-08-03T03:26:02.329Z,11.02
2022-08-03T03:28:30.870Z,11.75
2022-08-03T03:30:58.845Z,11.65
2022-08-03T03:33:28.369Z,11.52
2022-08-03T03:35:56.144Z,12.23
2022-08-03T03:38:23.112Z,12.82
2022-08-03T03:40:50.329Z,12.20
2022-08-03T03:43:18.674Z,12.95
2022-08-03T03:45:46.886Z,12.80
2022-08-03T03:48:13.947Z,12.27
2022-08-03T03:50:41.121Z,12.18
2022-08-03T03:53:13.439Z,12.95
2022-08-03T03:55:57.735Z,11.70
2022-08-03T03:58:29.052Z,12.13
2022-08-03T04:00:56.115Z,12.13
2022-08-03T04:03:23.175Z,13.15
2022-08-03T04:06:08.566Z,13.07
2022-08-03T04:08:53.822Z,13.05
2022-08-03T04:11:30.446Z,12.40
2022-08-03T04:14:30.300Z,12.27
2022-08-03T04:17:01.995Z,12.15
2022-08-03T04:19:36.419Z,13.30
2022-08-03T04:22:10.935Z,12.93
2022-08-03T04:24:51.635Z,12.85
2022-08-03T04:27:24.849Z,12.60
2022-08-03T04:29:55.716Z,13.00
2022-08-03T04:32:34.147Z,12.82
2022-08-03T04:35:01.214Z,12.40
2022-08-03T04:37:51.982Z,13.10
2022-08-03T04:40:30.874Z,12.30
2022-08-03T04:43:00.133Z,13.13
2022-08-03T04:45:31.711Z,12.60
2022-08-03T04:47:59.690Z,11.25
2022-08-03T04:50:30.488Z,11.13
2022-08-03T04:53:07.283Z,12.23
2022-08-03T04:55:35.611Z,12.95
2022-08-03T04:58:04.108Z,12.98
2022-08-03T05:00:31.385Z,13.15
2022-08-03T05:02:58.487Z,12.85
2022-08-03T05:05:25.665Z,13.30
2022-08-03T05:08:05.164Z,13.13
2022-08-03T05:10:38.055Z,12.40
2022-08-03T05:13:05.119Z,11.98
2022-08-03T05:15:32.065Z,12.23
2022-08-03T05:17:58.982Z,12.05
2022-08-03T05:20:26.427Z,13.10
2022-08-03T05:22:53.408Z,12.43
2022-08-03T05:25:23.363Z,12.88
2022-08-03T05:27:54.267Z,12.73
2022-08-03T05:30:30.467Z,11.88
2022-08-03T05:33:01.090Z,12.05
2022-08-03T05:35:57.236Z,12.95
2022-08-03T05:38:28.251Z,12.77
2022-08-03T05:41:22.682Z,12.30
2022-08-03T05:43:45.233Z,13.15
2022-08-03T05:46:13.171Z,12.65
2022-08-03T05:48:42.314Z,12.98
2022-08-03T05:51:11.934Z,12.35
2022-08-03T05:53:40.569Z,13.60
2022-08-03T05:56:14.429Z,14.20
2022-08-03T05:58:47.581Z,14.70
2022-08-03T06:01:16.996Z,12.57
2022-08-03T06:03:45.442Z,12.73
2022-08-03T06:06:12.471Z,11.77
2022-08-03T06:08:45.598Z,12.50
2022-08-03T06:11:13.589Z,12.57
2022-08-03T06:13:41.641Z,12.90
2022-08-03T06:16:09.119Z,11.30
2022-08-03T06:18:36.595Z,12.48
2022-08-03T06:21:14.875Z,12.52
2022-08-03T06:23:53.210Z,13.15
2022-08-03T06:26:23.108Z,13.00
2022-08-03T06:28:52.567Z,13.00
2022-08-03T06:31:33.334Z,11.55
2022-08-03T06:34:34.505Z,11.98
2022-08-03T06:36:51.235Z,11.95
2022-08-03T06:39:20.063Z,12.40
2022-08-03T06:41:46.987Z,12.50
2022-08-03T06:44:13.916Z,11.32
2022-08-03T06:46:41.052Z,13.13
2022-08-03T06:49:08.336Z,12.90
2022-08-03T06:52:03.555Z,13.05
2022-08-03T06:54:22.414Z,12.77
2022-08-03T06:56:49.381Z,12.57
2022-08-03T07:00:07.774Z,11.70
2022-08-03T07:02:03.806Z,12.65
2022-08-03T07:04:30.760Z,13.43
2022-08-03T07:06:58.605Z,12.90
2022-08-03T07:09:26.834Z,13.07
2022-08-03T07:11:54.605Z,12.70
2022-08-03T07:14:22.099Z,12.77
2022-08-03T07:16:49.111Z,12.55
2022-08-03T07:19:16.309Z,11.70
2022-08-03T07:21:43.270Z,11.55
2022-08-03T07:24:10.214Z,9.63
2022-08-03T07:26:37.219Z,10.95
2022-08-03T07:29:04.171Z,10.30
2022-08-03T07:31:42.526Z,10.25
2022-08-03T07:34:09.483Z,9.52
2022-08-03T07:36:36.439Z,8.98
2022-08-03T07:39:15.382Z,8.50
2022-08-03T07:41:46.036Z,8.30
2022-08-03T07:44:13.315Z,9.55
2022-08-03T07:46:40.252Z,8.77
2022-08-03T07:49:07.272Z,8.23
2022-08-03T07:51:34.437Z,8.35
2022-08-03T07:54:01.522Z,8.68
2022-08-03T07:56:28.843Z,7.70
2022-08-03T07:58:56.742Z,8.18
2022-08-03T08:01:24.334Z,7.80
2022-08-03T08:03:52.815Z,6.88
2022-08-03T08:06:21.285Z,6.72
2022-08-03T08:08:48.633Z,5.45
2022-08-03T08:11:15.795Z,4.60
2022-08-03T08:13:42.731Z,5.30
2022-08-03T08:16:09.723Z,5.32
2022-08-03T08:18:36.659Z,6.03
2022-08-03T08:21:03.715Z,5.13
2022-08-03T08:23:43.530Z,5.18
2022-08-03T08:26:12.077Z,4.43
2022-08-03T08:28:39.393Z,5.00
2022-08-03T08:31:06.741Z,4.80
2022-08-03T08:34:02.636Z,4.60
2022-08-03T08:36:21.763Z,4.18
2022-08-03T08:38:48.827Z,4.05
2022-08-03T08:41:16.539Z,4.63
2022-08-03T08:43:43.836Z,4.70
2022-08-03T08:46:13.282Z,4.70
2022-08-03T08:48:52.517Z,4.28
2022-08-03T08:51:21.997Z,4.45
2022-08-03T08:53:53.088Z,4.93
2022-08-03T08:56:25.425Z,5.45
2022-08-03T08:58:58.397Z,5.70
2022-08-03T09:01:25.398Z,5.57
2022-08-03T09:03:54.278Z,5.47
2022-08-03T09:06:22.624Z,5.28
2022-08-03T09:08:49.660Z,6.47
2022-08-03T09:11:16.648Z,5.82
2022-08-03T09:13:43.613Z,5.13
2022-08-03T09:16:14.354Z,5.40
2022-08-03T09:18:44.003Z,4.78
2022-08-03T09:21:33.880Z,4.32
2022-08-03T09:24:06.292Z,4.60
2022-08-03T09:26:38.173Z,4.75
2022-08-03T09:29:14.831Z,4.80
2022-08-03T09:31:47.183Z,4.72
2022-08-03T09:34:17.755Z,5.28
2022-08-03T09:36:50.262Z,4.70
2022-08-03T09:39:40.408Z,4.72
2022-08-03T09:42:17.482Z,4.93
2022-08-03T09:44:51.186Z,4.72
2022-08-03T09:47:30.623Z,4.47
2022-08-03T09:50:04.050Z,4.50
2022-08-03T09:52:38.897Z,4.28
2022-08-03T09:56:30.913Z,5.18
2022-08-03T09:58:07.195Z,4.68
2022-08-03T10:01:00.756Z,4.55
2022-08-03T10:03:36.154Z,4.47
2022-08-03T10:06:23.100Z,4.30
2022-08-03T10:09:14.524Z,4.40
2022-08-03T10:11:43.526Z,4.72
2022-08-03T10:14:19.368Z,4.43
2022-08-03T10:16:48.387Z,4.82
2022-08-03T10:19:16.476Z,4.40
2022-08-03T10:21:51.458Z,4.25
2022-08-03T10:24:27.215Z,4.40
2022-08-03T10:27:04.799Z,4.32
2022-08-03T10:29:44.664Z,4.18
2022-08-03T10:32:22.742Z,4.13
2022-08-03T10:35:00.222Z,4.53
2022-08-03T10:37:32.908Z,4.22
2022-08-03T10:40:02.727Z,4.10
2022-08-03T10:42:31.966Z,4.40
2022-08-03T10:45:18.534Z,4.18
2022-08-03T10:47:47.801Z,4.38
2022-08-03T10:50:15.746Z,4.22
2022-08-03T10:52:58.702Z,3.97
2022-08-03T10:55:52.955Z,4.40
2022-08-03T10:58:38.270Z,4.25
2022-08-03T11:01:59.061Z,4.00
2022-08-03T11:04:29.945Z,4.30
2022-08-03T11:07:16.779Z,4.05
2022-08-03T11:09:58.351Z,4.47
2022-08-03T11:12:32.626Z,4.30
2022-08-03T11:15:04.824Z,4.10
2022-08-03T11:17:46.117Z,4.10
2022-08-03T11:20:51.259Z,4.63
2022-08-03T11:24:03.622Z,4.65
2022-08-03T11:26:28.326Z,4.50
2022-08-03T11:29:28.119Z,4.28
2022-08-03T11:31:55.140Z,4.60
2022-08-03T11:34:24.569Z,4.30
2022-08-03T11:37:23.275Z,4.35
2022-08-03T11:39:54.823Z,4.32
2022-08-03T11:42:24.957Z,4.30
2022-08-03T11:45:00.662Z,4.43
2022-08-03T11:47:29.744Z,4.47
2022-08-03T11:50:02.194Z,3.85
2022-08-03T11:52:37.012Z,5.05
2022-08-03T11:55:10.632Z,4.60
2022-08-03T11:59:15.186Z,4.40
2022-08-03T12:00:30.691Z,4.28
2022-08-03T12:03:06.444Z,4.55
2022-08-03T12:05:52.026Z,4.82
2022-08-03T12:08:28.522Z,4.78
2022-08-03T12:10:57.762Z,4.60
2022-08-03T12:14:43.765Z,5.10
2022-08-03T12:16:20.811Z,5.05
2022-08-03T12:19:02.565Z,4.88
2022-08-03T12:21:30.857Z,5.05
2022-08-03T12:24:04.036Z,4.90
2022-08-03T12:26:58.323Z,4.85
2022-08-03T12:29:27.553Z,4.93
2022-08-03T12:31:56.121Z,5.00
2022-08-03T12:34:23.372Z,5.22
2022-08-03T12:36:59.276Z,5.10
2022-08-03T12:39:30.861Z,4.95
2022-08-03T12:41:58.317Z,4.47
2022-08-03T12:44:36.296Z,4.78
2022-08-03T12:47:05.696Z,4.80
2022-08-03T12:49:54.697Z,4.60
2022-08-03T12:52:23.217Z,5.40
2022-08-03T12:55:01.122Z,4.85
2022-08-03T12:57:42.300Z,4.57
2022-08-03T13:00:19.963Z,6.07
2022-08-03T13:05:54.940Z,4.88
2022-08-03T13:08:25.000Z,4.93
2022-08-03T13:10:51.968Z,4.93
2022-08-03T13:13:20.822Z,4.97
2022-08-03T13:15:48.350Z,5.13
2022-08-03T13:18:17.497Z,5.18
2022-08-03T13:20:44.806Z,5.50
2022-08-03T13:23:12.961Z,5.10
2022-08-03T13:25:55.070Z,5.10
2022-08-03T13:28:23.101Z,4.82
2022-08-03T13:30:50.054Z,4.85
2022-08-03T13:33:17.655Z,4.80
2022-08-03T13:35:44.647Z,4.72
2022-08-03T13:38:11.752Z,5.13
2022-08-03T13:40:41.739Z,5.25
2022-08-03T13:43:09.170Z,5.10
2022-08-03T13:45:36.517Z,5.57
2022-08-03T13:48:03.555Z,5.00
2022-08-03T13:50:31.396Z,5.22
2022-08-03T13:52:58.756Z,4.88
2022-08-03T13:55:25.861Z,5.03
2022-08-03T13:58:02.505Z,5.47
2022-08-03T14:00:34.325Z,5.07
2022-08-03T14:03:09.222Z,5.13
2022-08-03T14:05:41.038Z,4.85
2022-08-03T14:08:08.520Z,4.65
2022-08-03T14:10:42.940Z,4.80
2022-08-03T14:13:12.598Z,4.70
2022-08-03T14:15:43.724Z,5.32
2022-08-03T14:18:28.774Z,4.90
2022-08-03T14:21:06.712Z,5.28
2022-08-03T14:23:36.238Z,5.30
2022-08-03T14:26:03.524Z,5.15
2022-08-03T14:28:30.494Z,5.50
2022-08-03T14:30:57.412Z,5.15
2022-08-03T14:33:24.810Z,5.60
2022-08-03T14:35:52.698Z,5.38
2022-08-03T14:38:20.635Z,5.43
2022-08-03T14:40:48.766Z,5.72
2022-08-03T14:43:18.171Z,5.10
2022-08-03T14:45:45.136Z,5.50
2022-08-03T14:50:33.567Z,5.55
2022-08-03T14:50:59.875Z,5.00
2022-08-03T14:53:28.715Z,5.47
2022-08-03T14:55:55.802Z,5.35
2022-08-03T14:58:25.341Z,5.35
2022-08-03T15:00:54.799Z,5.40
2022-08-03T15:03:24.703Z,5.15
2022-08-03T15:05:53.900Z,4.90
2022-08-03T15:08:22.081Z,5.47
2022-08-03T15:10:50.517Z,5.55
2022-08-03T15:13:18.208Z,5.18
2022-08-03T15:15:45.562Z,5.50
2022-08-03T15:18:12.525Z,5.43
2022-08-03T15:20:44.864Z,5.10
2022-08-03T15:23:15.573Z,5.20
2022-08-03T15:26:29.292Z,5.18
2022-08-03T15:28:32.198Z,5.00
2022-08-03T15:30:59.306Z,5.25
2022-08-03T15:33:26.260Z,5.50
2022-08-03T15:35:53.448Z,5.25
2022-08-03T15:38:25.723Z,5.10
2022-08-03T15:40:54.930Z,4.85
2022-08-03T15:43:23.278Z,5.50
2022-08-03T15:46:19.122Z,5.53
2022-08-03T15:48:37.179Z,5.05
2022-08-03T15:51:05.587Z,4.78
2022-08-03T15:53:33.722Z,4.47
2022-08-03T15:56:05.164Z,5.28
2022-08-03T15:58:59.634Z,5.60
2022-08-03T16:01:25.699Z,5.18
2022-08-03T16:03:52.739Z,5.82
2022-08-03T16:06:29.898Z,5.18
2022-08-03T16:09:04.625Z,5.32
2022-08-03T16:11:31.677Z,5.28
2022-08-03T16:14:13.612Z,5.55
2022-08-03T16:16:46.027Z,5.80
2022-08-03T16:19:13.769Z,5.30
2022-08-03T16:21:48.123Z,5.63
2022-08-03T16:24:17.171Z,5.32
2022-08-03T16:26:44.689Z,5.38
2022-08-03T16:29:23.358Z,5.15
2022-08-03T16:31:51.093Z,5.40
2022-08-03T16:34:18.589Z,5.72
2022-08-03T16:36:45.999Z,5.20
2022-08-03T16:39:13.077Z,5.25
2022-08-03T16:41:54.188Z,4.97
2022-08-03T16:44:29.554Z,5.03
2022-08-03T16:46:56.628Z,5.28
2022-08-03T16:49:55.126Z,5.10
2022-08-03T16:52:10.598Z,5.43
2022-08-03T16:54:40.107Z,5.25
2022-08-03T16:57:07.651Z,5.10
2022-08-03T16:59:36.209Z,5.07
2022-08-03T17:02:09.954Z,5.13
2022-08-03T17:04:40.328Z,4.88
2022-08-03T17:07:08.869Z,4.97
2022-08-03T17:09:38.280Z,5.40
2022-08-03T17:12:07.191Z,5.38
2022-08-03T17:14:34.197Z,5.22
2022-08-03T17:17:05.295Z,5.05
2022-08-03T17:19:39.731Z,5.25
2022-08-03T17:22:18.462Z,5.65
2022-08-03T17:24:50.389Z,6.18
2022-08-03T17:28:48.764Z,5.65
2022-08-03T17:30:12.145Z,5.65
2022-08-03T17:32:53.510Z,5.40
2022-08-03T17:35:36.402Z,5.95
2022-08-03T17:38:08.935Z,7.00
2022-08-03T17:40:38.065Z,8.85
2022-08-03T17:45:55.002Z,7.65
2022-08-03T17:48:24.961Z,7.15
2022-08-03T17:51:00.661Z,7.07
2022-08-03T17:53:33.237Z,6.75
2022-08-03T17:56:42.481Z,8.05
2022-08-03T17:59:52.704Z,9.13
2022-08-03T18:03:20.694Z,7.43
2022-08-03T18:06:11.467Z,6.22
2022-08-03T18:08:51.282Z,6.15
2022-08-03T18:11:35.736Z,6.35
2022-08-03T18:14:16.604Z,6.07
2022-08-03T18:17:00.249Z,7.75
2022-08-03T18:20:03.258Z,8.57
2022-08-03T18:22:20.870Z,8.02
2022-08-03T18:24:50.870Z,7.60
2022-08-03T18:27:22.074Z,6.78
2022-08-03T18:29:52.071Z,6.40
2022-08-03T18:32:19.478Z,6.70
2022-08-03T18:34:53.454Z,6.55
2022-08-03T18:37:25.611Z,5.95
2022-08-03T18:39:57.967Z,6.38
2022-08-03T18:42:25.850Z,7.00
2022-08-03T18:44:56.168Z,7.20
2022-08-03T18:47:50.690Z,7.78
2022-08-03T18:50:51.954Z,8.07
2022-08-03T18:54:02.291Z,8.27
2022-08-03T18:56:39.793Z,9.27
2022-08-03T18:59:54.342Z,8.75
2022-08-03T19:02:52.842Z,10.65
2022-08-03T19:05:24.688Z,10.80
2022-08-03T19:08:32.087Z,10.23
2022-08-03T19:11:06.101Z,10.05
2022-08-03T19:13:50.341Z,10.68
2022-08-03T19:16:41.582Z,10.30
2022-08-03T19:19:14.430Z,10.95
2022-08-03T19:21:41.900Z,11.10
2022-08-03T19:24:10.430Z,10.85
2022-08-03T19:26:39.677Z,10.85
2022-08-03T19:29:10.702Z,10.43
2022-08-03T19:31:59.514Z,10.20
2022-08-03T19:34:30.101Z,10.63
2022-08-03T19:36:58.780Z,10.82
2022-08-03T19:39:26.145Z,9.95
2022-08-03T19:41:58.888Z,10.35
2022-08-03T19:44:37.871Z,10.27
2022-08-03T19:47:17.054Z,10.95
2022-08-03T19:50:06.067Z,10.82
2022-08-03T19:52:39.290Z,10.57
2022-08-03T19:55:12.390Z,11.73
2022-08-03T19:57:44.094Z,10.80
2022-08-03T20:00:14.120Z,10.38
2022-08-03T20:02:43.035Z,10.57
2022-08-03T20:05:15.027Z,10.77
2022-08-03T20:07:47.925Z,9.88
2022-08-03T20:10:19.363Z,9.77
2022-08-03T20:12:49.108Z,9.98
2022-08-03T20:15:18.295Z,9.70
2022-08-03T20:17:58.800Z,9.98
2022-08-03T20:20:35.342Z,10.18
2022-08-03T20:23:11.460Z,10.40
2022-08-03T20:25:58.490Z,10.75
2022-08-03T20:28:50.694Z,10.85
2022-08-03T20:31:21.632Z,10.23
2022-08-03T20:33:50.883Z,10.73
2022-08-03T20:36:19.082Z,10.63
2022-08-03T20:38:47.923Z,10.88
2022-08-03T20:41:17.116Z,10.48
2022-08-03T20:43:45.153Z,10.80
2022-08-03T20:46:31.781Z,11.15
2022-08-03T20:49:04.316Z,10.80
2022-08-03T20:51:49.543Z,11.18
2022-08-03T20:54:29.661Z,11.40
2022-08-03T20:59:56.224Z,11.10
2022-08-03T21:02:30.340Z,10.93
2022-08-03T21:05:08.295Z,11.40
2022-08-03T21:08:06.863Z,10.80
2022-08-03T21:10:39.350Z,11.00
2022-08-03T21:13:05.979Z,8.38
2022-08-03T21:13:13.905Z,11.57
2022-08-03T21:13:32.118Z,11.30
2022-08-03T21:16:12.868Z,10.70
2022-08-03T21:18:50.672Z,11.50
2022-08-03T21:21:21.311Z,11.48
2022-08-03T21:23:54.566Z,11.18
2022-08-03T21:26:24.743Z,11.88
2022-08-03T21:28:54.787Z,10.95
2022-08-03T21:31:25.368Z,10.80
2022-08-03T21:34:00.346Z,11.07
2022-08-03T21:36:29.887Z,10.27
2022-08-03T21:38:58.035Z,11.07
2022-08-03T21:41:32.747Z,10.38
2022-08-03T21:44:01.242Z,10.63
2022-08-03T21:46:35.464Z,11.00
2022-08-03T21:49:51.798Z,10.55
2022-08-03T21:51:59.383Z,10.18
2022-08-03T21:54:35.027Z,10.13
2022-08-03T21:57:06.570Z,10.40
2022-08-03T21:59:38.213Z,10.38
2022-08-03T22:02:06.785Z,10.65
2022-08-03T22:04:55.518Z,10.07
2022-08-03T22:07:28.616Z,9.18
2022-08-03T22:09:57.448Z,9.75
2022-08-03T22:12:27.479Z,9.48
2022-08-03T22:15:00.218Z,8.82
2022-08-03T22:17:55.885Z,8.55
2022-08-03T22:20:20.180Z,8.98
2022-08-03T22:22:55.125Z,8.38
2022-08-03T22:25:29.201Z,7.88
2022-08-03T22:28:00.372Z,8.48
2022-08-03T22:30:27.746Z,7.70
2022-08-03T22:32:56.345Z,7.18
2022-08-03T22:35:26.429Z,7.90
2022-08-03T22:37:55.546Z,6.95
2022-08-03T22:40:22.816Z,7.68
2022-08-03T22:42:51.979Z,7.32
2022-08-03T22:46:06.474Z,7.50
2022-08-03T22:48:08.603Z,7.15
2022-08-03T22:50:35.627Z,7.18
2022-08-03T22:53:03.382Z,7.22
2022-08-03T22:55:31.184Z,7.55
2022-08-03T22:57:58.112Z,7.95
2022-08-03T23:00:25.104Z,7.80
2022-08-03T23:02:54.695Z,7.40
2022-08-03T23:06:01.021Z,8.02
2022-08-03T23:08:16.306Z,7.60
2022-08-03T23:10:47.347Z,7.07
2022-08-03T23:13:18.002Z,7.10
2022-08-03T23:15:57.221Z,7.45
2022-08-03T23:18:25.539Z,7.00
2022-08-03T23:20:53.621Z,6.97
2022-08-03T23:23:23.486Z,7.30
2022-08-03T23:25:51.978Z,7.50
2022-08-03T23:28:19.091Z,7.18
2022-08-03T23:30:47.474Z,7.43
2022-08-03T23:33:16.780Z,7.20
2022-08-03T23:36:28.146Z,7.10
2022-08-03T23:38:49.385Z,6.88
2022-08-03T23:41:18.770Z,7.15
2022-08-03T23:43:52.421Z,7.50
2022-08-03T23:46:22.542Z,7.72
2022-08-03T23:48:50.861Z,7.53
2022-08-03T23:51:46.667Z,7.30
2022-08-03T23:55:00.033Z,7.43
2022-08-03T23:57:59.482Z,6.80
